createdAt,value
2023-05-21T00:00:28.754Z,470.00
2023-05-21T00:01:28.381Z,468.00
2023-05-21T00:02:28.469Z,468.00
2023-05-21T00:03:28.556Z,466.00
2023-05-21T00:04:28.420Z,464.00
2023-05-21T00:05:28.455Z,465.00
2023-05-21T00:06:28.635Z,466.00
2023-05-21T00:07:28.481Z,468.00
2023-05-21T00:08:28.461Z,471.00
2023-05-21T00:09:28.457Z,474.00
2023-05-21T00:10:28.465Z,473.00
2023-05-21T00:11:28.492Z,474.00
2023-05-21T00:12:28.472Z,473.00
2023-05-21T00:13:28.492Z,474.00
2023-05-21T00:14:28.492Z,473.00
2023-05-21T00:15:28.506Z,474.00
2023-05-21T00:16:28.541Z,473.00
2023-05-21T00:17:28.595Z,472.00
2023-05-21T00:18:28.517Z,472.00
2023-05-21T00:19:28.620Z,470.00
2023-05-21T00:20:28.550Z,471.00
2023-05-21T00:21:28.587Z,472.00
2023-05-21T00:22:28.583Z,469.00
2023-05-21T00:23:28.616Z,467.00
2023-05-21T00:24:28.613Z,467.00
2023-05-21T00:25:28.659Z,467.00
2023-05-21T00:26:28.662Z,467.00
2023-05-21T00:27:28.770Z,467.00
2023-05-21T00:28:28.908Z,467.00
2023-05-21T00:29:29.036Z,468.00
2023-05-21T00:30:29.068Z,468.00
2023-05-21T00:31:29.163Z,466.00
2023-05-21T00:32:29.141Z,467.00
2023-05-21T00:33:29.176Z,469.00
2023-05-21T00:34:29.209Z,469.00
2023-05-21T00:35:29.343Z,467.00
2023-05-21T00:36:29.470Z,468.00
2023-05-21T00:37:29.588Z,470.00
2023-05-21T00:38:29.663Z,471.00
2023-05-21T00:39:29.666Z,471.00
2023-05-21T00:40:29.700Z,470.00
2023-05-21T00:41:29.731Z,470.00
2023-05-21T00:42:29.808Z,469.00
2023-05-21T00:43:29.794Z,469.00
2023-05-21T00:44:29.825Z,469.00
2023-05-21T00:45:29.990Z,468.00
2023-05-21T00:46:29.906Z,468.00
2023-05-21T00:47:29.893Z,467.00
2023-05-21T00:48:29.807Z,467.00
2023-05-21T00:49:29.839Z,469.00
2023-05-21T00:50:29.844Z,468.00
2023-05-21T00:51:29.833Z,470.00
2023-05-21T00:52:29.857Z,470.00
2023-05-21T00:53:29.853Z,471.00
2023-05-21T00:54:29.859Z,472.00
2023-05-21T00:55:29.852Z,472.00
2023-05-21T00:56:29.855Z,471.00
2023-05-21T00:57:29.884Z,469.00
2023-05-21T00:58:29.860Z,470.00
2023-05-21T00:59:29.879Z,470.00
2023-05-21T01:00:29.948Z,470.00
2023-05-21T01:01:29.938Z,469.00
2023-05-21T01:02:29.990Z,468.00
2023-05-21T01:03:30.036Z,467.00
2023-05-21T01:04:30.013Z,469.00
2023-05-21T01:05:30.041Z,471.00
2023-05-21T01:06:30.087Z,472.00
2023-05-21T01:07:30.117Z,473.00
2023-05-21T01:08:30.193Z,472.00
2023-05-21T01:09:30.186Z,472.00
2023-05-21T01:10:30.224Z,475.00
2023-05-21T01:11:30.254Z,473.00
2023-05-21T01:12:30.293Z,474.00
2023-05-21T01:13:30.320Z,477.00
2023-05-21T01:14:30.362Z,477.00
2023-05-21T01:15:30.400Z,475.00
2023-05-21T01:16:30.435Z,474.00
2023-05-21T01:17:30.491Z,474.00
2023-05-21T01:18:30.529Z,474.00
2023-05-21T01:19:30.576Z,477.00
2023-05-21T01:20:30.583Z,479.00
2023-05-21T01:21:30.610Z,480.00
2023-05-21T01:22:30.651Z,480.00
2023-05-21T01:23:30.688Z,481.00
2023-05-21T01:24:30.729Z,481.00
2023-05-21T01:25:30.762Z,478.00
2023-05-21T01:26:30.827Z,477.00
2023-05-21T01:27:30.828Z,476.00
2023-05-21T01:28:30.861Z,476.00
2023-05-21T01:29:30.972Z,476.00
2023-05-21T01:30:30.965Z,476.00
2023-05-21T01:31:31.006Z,476.00
2023-05-21T01:32:31.093Z,476.00
2023-05-21T01:33:31.096Z,478.00
2023-05-21T01:34:31.109Z,475.00
2023-05-21T01:35:31.173Z,476.00
2023-05-21T01:36:31.170Z,475.00
2023-05-21T01:37:31.223Z,473.00
2023-05-21T01:38:31.251Z,475.00
2023-05-21T01:39:31.286Z,473.00
2023-05-21T01:40:31.351Z,473.00
2023-05-21T01:41:31.406Z,474.00
2023-05-21T01:42:31.431Z,477.00
2023-05-21T01:43:31.451Z,479.00
2023-05-21T01:44:31.502Z,480.00
2023-05-21T01:45:31.540Z,480.00
2023-05-21T01:46:31.588Z,482.00
2023-05-21T01:47:31.589Z,479.00
2023-05-21T01:48:31.595Z,476.00
2023-05-21T01:49:31.584Z,474.00
2023-05-21T01:50:31.589Z,473.00
2023-05-21T01:51:31.589Z,474.00
2023-05-21T01:52:31.591Z,474.00
2023-05-21T01:53:31.591Z,475.00
2023-05-21T01:54:31.590Z,476.00
2023-05-21T01:55:31.593Z,477.00
2023-05-21T01:56:31.622Z,476.00
2023-05-21T01:57:31.638Z,473.00
2023-05-21T01:58:31.600Z,472.00
2023-05-21T01:59:31.630Z,472.00
2023-05-21T02:00:31.656Z,473.00
2023-05-21T02:01:31.666Z,473.00
2023-05-21T02:02:31.674Z,471.00
2023-05-21T02:03:31.844Z,470.00
2023-05-21T02:04:31.730Z,471.00
2023-05-21T02:05:31.773Z,471.00
2023-05-21T02:06:31.819Z,471.00
2023-05-21T02:07:31.854Z,473.00
2023-05-21T02:08:31.886Z,473.00
2023-05-21T02:09:31.935Z,472.00
2023-05-21T02:10:31.984Z,472.00
2023-05-21T02:11:32.035Z,470.00
2023-05-21T02:12:32.099Z,469.00
2023-05-21T02:13:32.061Z,471.00
2023-05-21T02:14:32.148Z,470.00
2023-05-21T02:15:32.211Z,469.00
2023-05-21T02:16:32.226Z,470.00
2023-05-21T02:17:32.257Z,470.00
2023-05-21T02:18:32.302Z,467.00
2023-05-21T02:19:32.496Z,468.00
2023-05-21T02:20:32.370Z,469.00
2023-05-21T02:21:32.437Z,470.00
2023-05-21T02:22:32.439Z,470.00
2023-05-21T02:23:32.457Z,470.00
2023-05-21T02:24:32.510Z,469.00
2023-05-21T02:25:32.861Z,471.00
2023-05-21T02:26:32.607Z,474.00
2023-05-21T02:27:32.641Z,474.00
2023-05-21T02:28:32.689Z,475.00
2023-05-21T02:29:32.714Z,476.00
2023-05-21T02:30:32.792Z,476.00
2023-05-21T02:31:32.805Z,475.00
2023-05-21T02:32:32.877Z,477.00
2023-05-21T02:33:32.908Z,478.00
2023-05-21T02:34:32.913Z,477.00
2023-05-21T02:35:33.052Z,476.00
2023-05-21T02:36:33.060Z,473.00
2023-05-21T02:37:33.068Z,475.00
2023-05-21T02:38:33.107Z,475.00
2023-05-21T02:39:33.105Z,474.00
2023-05-21T02:40:33.187Z,475.00
2023-05-21T02:41:33.189Z,474.00
2023-05-21T02:42:33.226Z,475.00
2023-05-21T02:43:33.294Z,475.00
2023-05-21T02:44:33.363Z,475.00
2023-05-21T02:45:33.382Z,473.00
2023-05-21T02:46:33.400Z,472.00
2023-05-21T02:47:33.441Z,473.00
2023-05-21T02:48:33.479Z,473.00
2023-05-21T02:49:33.506Z,474.00
2023-05-21T02:50:33.531Z,472.00
2023-05-21T02:51:33.591Z,474.00
2023-05-21T02:52:33.721Z,474.00
2023-05-21T02:53:33.651Z,473.00
2023-05-21T02:54:33.682Z,472.00
2023-05-21T02:55:33.917Z,474.00
2023-05-21T02:56:33.776Z,474.00
2023-05-21T02:57:33.817Z,473.00
2023-05-21T02:58:33.857Z,475.00
2023-05-21T02:59:33.882Z,474.00
2023-05-21T03:00:33.949Z,473.00
2023-05-21T03:01:33.962Z,472.00
2023-05-21T03:02:34.056Z,472.00
2023-05-21T03:03:34.212Z,471.00
2023-05-21T03:04:34.096Z,473.00
2023-05-21T03:05:34.242Z,472.00
2023-05-21T03:06:34.164Z,474.00
2023-05-21T03:07:34.232Z,475.00
2023-05-21T03:08:34.262Z,475.00
2023-05-21T03:09:34.276Z,474.00
2023-05-21T03:10:34.344Z,473.00
2023-05-21T03:11:34.385Z,472.00
2023-05-21T03:12:34.453Z,471.00
2023-05-21T03:13:34.538Z,471.00
2023-05-21T03:14:34.522Z,472.00
2023-05-21T03:15:34.616Z,473.00
2023-05-21T03:16:34.711Z,474.00
2023-05-21T03:17:34.665Z,474.00
2023-05-21T03:18:34.664Z,474.00
2023-05-21T03:19:34.708Z,473.00
2023-05-21T03:20:34.756Z,474.00
2023-05-21T03:21:34.796Z,473.00
2023-05-21T03:22:34.831Z,471.00
2023-05-21T03:23:34.888Z,469.00
2023-05-21T03:24:34.920Z,469.00
2023-05-21T03:25:35.176Z,469.00
2023-05-21T03:26:35.012Z,469.00
2023-05-21T03:27:35.060Z,470.00
2023-05-21T03:28:35.128Z,470.00
2023-05-21T03:29:35.196Z,469.00
2023-05-21T03:30:35.201Z,471.00
2023-05-21T03:31:35.304Z,472.00
2023-05-21T03:32:35.306Z,472.00
2023-05-21T03:33:35.337Z,472.00
2023-05-21T03:34:35.378Z,472.00
2023-05-21T03:35:35.598Z,472.00
2023-05-21T03:36:35.452Z,472.00
2023-05-21T03:37:35.511Z,472.00
2023-05-21T03:38:37.060Z,471.00
2023-05-21T03:39:35.602Z,471.00
2023-05-21T03:40:35.652Z,474.00
2023-05-21T03:41:35.688Z,475.00
2023-05-21T03:42:35.727Z,474.00
2023-05-21T03:43:35.787Z,471.00
2023-05-21T03:44:35.842Z,475.00
2023-05-21T03:45:36.089Z,476.00
2023-05-21T03:46:35.938Z,474.00
2023-05-21T03:47:35.887Z,473.00
2023-05-21T03:48:35.874Z,473.00
2023-05-21T03:49:35.872Z,472.00
2023-05-21T03:50:35.911Z,472.00
2023-05-21T03:51:35.881Z,472.00
2023-05-21T03:52:35.885Z,472.00
2023-05-21T03:53:35.876Z,472.00
2023-05-21T03:54:35.902Z,474.00
2023-05-21T03:55:36.048Z,473.00
2023-05-21T03:56:35.889Z,469.00
2023-05-21T03:57:35.898Z,467.00
2023-05-21T03:58:35.926Z,468.00
2023-05-21T03:59:35.985Z,468.00
2023-05-21T04:00:36.026Z,470.00
2023-05-21T04:01:36.074Z,470.00
2023-05-21T04:02:36.156Z,472.00
2023-05-21T04:03:37.870Z,472.00
2023-05-21T04:04:36.195Z,472.00
2023-05-21T04:05:36.299Z,473.00
2023-05-21T04:06:36.166Z,473.00
2023-05-21T04:07:36.139Z,474.00
2023-05-21T04:08:36.143Z,473.00
2023-05-21T04:09:36.777Z,471.00
2023-05-21T04:10:36.185Z,471.00
2023-05-21T04:11:36.171Z,472.00
2023-05-21T04:12:36.177Z,471.00
2023-05-21T04:13:36.188Z,474.00
2023-05-21T04:14:36.169Z,475.00
2023-05-21T04:15:36.355Z,476.00
2023-05-21T04:16:36.259Z,474.00
2023-05-21T04:17:36.232Z,472.00
2023-05-21T04:18:36.186Z,475.00
2023-05-21T04:19:36.242Z,473.00
2023-05-21T04:20:36.218Z,474.00
2023-05-21T04:21:36.184Z,474.00
2023-05-21T04:22:36.181Z,474.00
2023-05-21T04:23:36.167Z,474.00
2023-05-21T04:24:36.156Z,473.00
2023-05-21T04:25:36.322Z,472.00
2023-05-21T04:26:36.194Z,473.00
2023-05-21T04:27:36.169Z,474.00
2023-05-21T04:28:36.194Z,477.00
2023-05-21T04:29:36.236Z,477.00
2023-05-21T04:30:36.288Z,478.00
2023-05-21T04:31:36.420Z,478.00
2023-05-21T04:32:36.444Z,478.00
2023-05-21T04:33:36.368Z,477.00
2023-05-21T04:34:36.377Z,475.00
2023-05-21T04:35:36.665Z,477.00
2023-05-21T04:36:36.379Z,477.00
2023-05-21T04:37:36.406Z,477.00
2023-05-21T04:38:36.403Z,477.00
2023-05-21T04:39:36.401Z,475.00
2023-05-21T04:40:36.688Z,475.00
2023-05-21T04:41:36.371Z,474.00
2023-05-21T04:42:36.383Z,472.00
2023-05-21T04:43:36.389Z,473.00
2023-05-21T04:44:36.362Z,473.00
2023-05-21T04:45:36.673Z,474.00
2023-05-21T04:46:36.464Z,475.00
2023-05-21T04:47:36.530Z,475.00
2023-05-21T04:48:36.540Z,474.00
2023-05-21T04:49:36.568Z,475.00
2023-05-21T04:50:36.634Z,475.00
2023-05-21T04:51:36.648Z,475.00
2023-05-21T04:52:36.699Z,477.00
2023-05-21T04:53:36.744Z,479.00
2023-05-21T04:54:36.767Z,478.00
2023-05-21T04:55:37.049Z,477.00
2023-05-21T04:56:36.879Z,478.00
2023-05-21T04:57:36.900Z,477.00
2023-05-21T04:58:36.935Z,476.00
2023-05-21T04:59:36.975Z,475.00
2023-05-21T05:00:37.123Z,475.00
2023-05-21T05:01:37.038Z,475.00
2023-05-21T05:02:37.135Z,476.00
2023-05-21T05:03:37.203Z,477.00
2023-05-21T05:04:37.164Z,477.00
2023-05-21T05:05:37.306Z,477.00
2023-05-21T05:06:37.235Z,476.00
2023-05-21T05:07:37.284Z,475.00
2023-05-21T05:08:37.315Z,476.00
2023-05-21T05:09:37.347Z,476.00
2023-05-21T05:10:37.386Z,473.00
2023-05-21T05:11:37.431Z,472.00
2023-05-21T05:12:37.442Z,469.00
2023-05-21T05:13:37.521Z,466.00
2023-05-21T05:14:37.526Z,467.00
2023-05-21T05:15:37.714Z,468.00
2023-05-21T05:16:37.663Z,469.00
2023-05-21T05:17:37.679Z,473.00
2023-05-21T05:18:37.681Z,473.00
2023-05-21T05:19:37.712Z,474.00
2023-05-21T05:20:37.754Z,476.00
2023-05-21T05:21:37.783Z,476.00
2023-05-21T05:22:37.835Z,475.00
2023-05-21T05:23:37.823Z,476.00
2023-05-21T05:24:37.862Z,476.00
2023-05-21T05:25:38.072Z,475.00
2023-05-21T05:26:37.952Z,476.00
2023-05-21T05:27:38.764Z,473.00
2023-05-21T05:28:37.965Z,473.00
2023-05-21T05:29:37.978Z,471.00
2023-05-21T05:30:38.085Z,471.00
2023-05-21T05:31:38.008Z,471.00
2023-05-21T05:32:38.091Z,472.00
2023-05-21T05:33:38.002Z,475.00
2023-05-21T05:34:38.023Z,475.00
2023-05-21T05:35:38.172Z,475.00
2023-05-21T05:36:38.007Z,477.00
2023-05-21T05:37:38.011Z,478.00
2023-05-21T05:38:38.008Z,480.00
2023-05-21T05:39:38.009Z,481.00
2023-05-21T05:40:38.111Z,482.00
2023-05-21T05:41:38.043Z,479.00
2023-05-21T05:42:38.063Z,479.00
2023-05-21T05:43:38.030Z,478.00
2023-05-21T05:44:38.047Z,478.00
2023-05-21T05:45:38.406Z,475.00
2023-05-21T05:46:38.246Z,472.00
2023-05-21T05:47:38.191Z,470.00
2023-05-21T05:48:38.160Z,470.00
2023-05-21T05:49:38.191Z,469.00
2023-05-21T05:50:38.232Z,470.00
2023-05-21T05:51:38.270Z,469.00
2023-05-21T05:52:38.334Z,471.00
2023-05-21T05:53:38.369Z,472.00
2023-05-21T05:54:38.387Z,472.00
2023-05-21T05:55:38.688Z,473.00
2023-05-21T05:56:38.466Z,473.00
2023-05-21T05:57:38.489Z,474.00
2023-05-21T05:58:38.518Z,472.00
2023-05-21T05:59:38.552Z,472.00
2023-05-21T06:00:38.621Z,472.00
2023-05-21T06:01:38.611Z,474.00
2023-05-21T06:02:38.754Z,472.00
2023-05-21T06:03:38.875Z,472.00
2023-05-21T06:04:38.719Z,471.00
2023-05-21T06:05:39.084Z,471.00
2023-05-21T06:06:38.769Z,471.00
2023-05-21T06:07:38.800Z,471.00
2023-05-21T06:08:38.839Z,471.00
2023-05-21T06:09:38.888Z,471.00
2023-05-21T06:10:38.908Z,470.00
2023-05-21T06:11:38.908Z,468.00
2023-05-21T06:12:38.933Z,470.00
2023-05-21T06:13:38.982Z,471.00
2023-05-21T06:14:39.012Z,472.00
2023-05-21T06:15:39.148Z,470.00
2023-05-21T06:16:39.195Z,470.00
2023-05-21T06:17:39.148Z,467.00
2023-05-21T06:18:39.128Z,467.00
2023-05-21T06:19:39.180Z,466.00
2023-05-21T06:20:39.166Z,467.00
2023-05-21T06:21:39.192Z,469.00
2023-05-21T06:22:39.240Z,471.00
2023-05-21T06:23:39.294Z,471.00
2023-05-21T06:24:39.268Z,471.00
2023-05-21T06:25:39.442Z,471.00
2023-05-21T06:26:39.274Z,474.00
2023-05-21T06:27:39.346Z,474.00
2023-05-21T06:28:39.367Z,473.00
2023-05-21T06:29:39.347Z,473.00
2023-05-21T06:30:39.409Z,471.00
2023-05-21T06:31:39.420Z,474.00
2023-05-21T06:32:39.616Z,476.00
2023-05-21T06:33:39.659Z,475.00
2023-05-21T06:34:39.530Z,474.00
2023-05-21T06:35:39.551Z,472.00
2023-05-21T06:36:39.596Z,471.00
2023-05-21T06:37:39.596Z,469.00
2023-05-21T06:38:39.605Z,468.00
2023-05-21T06:39:39.633Z,469.00
2023-05-21T06:40:39.637Z,470.00
2023-05-21T06:41:39.645Z,471.00
2023-05-21T06:42:39.738Z,469.00
2023-05-21T06:43:39.744Z,467.00
2023-05-21T06:44:39.751Z,467.00
2023-05-21T06:45:39.993Z,469.00
2023-05-21T06:46:39.781Z,471.00
2023-05-21T06:47:39.819Z,473.00
2023-05-21T06:48:39.801Z,469.00
2023-05-21T06:49:39.815Z,469.00
2023-05-21T06:50:39.801Z,469.00
2023-05-21T06:51:39.792Z,469.00
2023-05-21T06:52:39.817Z,469.00
2023-05-21T06:53:39.807Z,468.00
2023-05-21T06:54:39.866Z,468.00
2023-05-21T06:55:39.829Z,470.00
2023-05-21T06:56:39.864Z,467.00
2023-05-21T06:57:39.806Z,465.00
2023-05-21T06:58:39.810Z,467.00
2023-05-21T06:59:39.807Z,469.00
2023-05-21T07:00:39.807Z,470.00
2023-05-21T07:01:39.884Z,471.00
2023-05-21T07:02:39.879Z,471.00
2023-05-21T07:03:39.855Z,471.00
2023-05-21T07:04:39.938Z,474.00
2023-05-21T07:05:40.076Z,474.00
2023-05-21T07:06:39.811Z,474.00
2023-05-21T07:07:39.811Z,476.00
2023-05-21T07:08:39.812Z,473.00
2023-05-21T07:09:39.825Z,472.00
2023-05-21T07:10:39.824Z,470.00
2023-05-21T07:11:39.819Z,468.00
2023-05-21T07:12:39.829Z,468.00
2023-05-21T07:13:39.834Z,468.00
2023-05-21T07:14:39.815Z,470.00
2023-05-21T07:15:39.832Z,471.00
2023-05-21T07:16:39.874Z,473.00
2023-05-21T07:17:39.842Z,472.00
2023-05-21T07:18:39.830Z,471.00
2023-05-21T07:19:39.870Z,471.00
2023-05-21T07:20:39.845Z,471.00
2023-05-21T07:21:39.839Z,469.00
2023-05-21T07:22:39.871Z,470.00
2023-05-21T07:23:39.865Z,472.00
2023-05-21T07:24:39.849Z,469.00
2023-05-21T07:25:39.914Z,467.00
2023-05-21T07:26:39.901Z,469.00
2023-05-21T07:27:39.927Z,470.00
2023-05-21T07:28:39.925Z,470.00
2023-05-21T07:29:39.993Z,469.00
2023-05-21T07:30:40.026Z,470.00
2023-05-21T07:31:40.162Z,470.00
2023-05-21T07:32:40.162Z,470.00
2023-05-21T07:33:40.175Z,468.00
2023-05-21T07:34:40.205Z,471.00
2023-05-21T07:35:40.268Z,472.00
2023-05-21T07:36:40.295Z,470.00
2023-05-21T07:37:40.346Z,470.00
2023-05-21T07:38:40.382Z,468.00
2023-05-21T07:39:40.449Z,470.00
2023-05-21T07:40:40.556Z,470.00
2023-05-21T07:41:40.495Z,471.00
2023-05-21T07:42:40.518Z,471.00
2023-05-21T07:43:40.578Z,470.00
2023-05-21T07:44:40.623Z,473.00
2023-05-21T07:45:40.670Z,474.00
2023-05-21T07:46:40.758Z,476.00
2023-05-21T07:47:40.768Z,475.00
2023-05-21T07:48:40.773Z,473.00
2023-05-21T07:49:40.824Z,471.00
2023-05-21T07:50:40.844Z,469.00
2023-05-21T07:51:40.904Z,468.00
2023-05-21T07:52:40.950Z,469.00
2023-05-21T07:53:40.984Z,471.00
2023-05-21T07:54:40.989Z,471.00
2023-05-21T07:55:40.989Z,473.00
2023-05-21T07:56:41.031Z,473.00
2023-05-21T07:57:41.111Z,471.00
2023-05-21T07:58:41.209Z,469.00
2023-05-21T07:59:41.168Z,469.00
2023-05-21T08:00:41.205Z,468.00
2023-05-21T08:01:41.283Z,468.00
2023-05-21T08:02:41.379Z,468.00
2023-05-21T08:03:41.355Z,467.00
2023-05-21T08:04:41.596Z,469.00
2023-05-21T08:05:41.382Z,473.00
2023-05-21T08:06:41.398Z,473.00
2023-05-21T08:07:41.429Z,476.00
2023-05-21T08:08:41.416Z,474.00
2023-05-21T08:09:41.463Z,474.00
2023-05-21T08:10:41.514Z,474.00
2023-05-21T08:11:41.560Z,473.00
2023-05-21T08:12:41.564Z,473.00
2023-05-21T08:13:41.601Z,473.00
2023-05-21T08:14:41.636Z,471.00
2023-05-21T08:15:41.678Z,469.00
2023-05-21T08:16:41.759Z,468.00
2023-05-21T08:17:41.892Z,469.00
2023-05-21T08:18:41.908Z,468.00
2023-05-21T08:19:41.891Z,468.00
2023-05-21T08:20:41.965Z,468.00
2023-05-21T08:21:41.981Z,465.00
2023-05-21T08:22:42.034Z,464.00
2023-05-21T08:23:42.141Z,462.00
2023-05-21T08:24:42.162Z,464.00
2023-05-21T08:25:42.214Z,466.00
2023-05-21T08:26:42.281Z,467.00
2023-05-21T08:27:42.312Z,466.00
2023-05-21T08:28:42.372Z,466.00
2023-05-21T08:29:42.414Z,466.00
2023-05-21T08:30:42.952Z,465.00
2023-05-21T08:31:42.550Z,466.00
2023-05-21T08:32:42.624Z,469.00
2023-05-21T08:33:42.665Z,472.00
2023-05-21T08:34:42.712Z,474.00
2023-05-21T08:35:42.966Z,475.00
2023-05-21T08:36:42.831Z,476.00
2023-05-21T08:37:42.866Z,478.00
2023-05-21T08:38:42.906Z,478.00
2023-05-21T08:39:42.976Z,477.00
2023-05-21T08:40:43.039Z,476.00
2023-05-21T08:41:43.085Z,476.00
2023-05-21T08:42:43.166Z,478.00
2023-05-21T08:43:43.211Z,476.00
2023-05-21T08:44:43.260Z,476.00
2023-05-21T08:45:43.333Z,474.00
2023-05-21T08:46:43.368Z,477.00
2023-05-21T08:47:43.487Z,479.00
2023-05-21T08:48:43.487Z,479.00
2023-05-21T08:49:43.534Z,477.00
2023-05-21T08:50:43.615Z,473.00
2023-05-21T08:51:43.624Z,471.00
2023-05-21T08:52:43.700Z,470.00
2023-05-21T08:53:43.768Z,470.00
2023-05-21T08:54:43.816Z,471.00
2023-05-21T08:55:43.897Z,469.00
2023-05-21T08:56:43.945Z,467.00
2023-05-21T08:57:43.992Z,468.00
2023-05-21T08:58:44.052Z,468.00
2023-05-21T08:59:44.098Z,467.00
2023-05-21T09:00:44.169Z,469.00
2023-05-21T09:01:44.238Z,469.00
2023-05-21T09:02:44.357Z,469.00
2023-05-21T09:03:44.331Z,471.00
2023-05-21T09:04:44.385Z,470.00
2023-05-21T09:05:44.390Z,469.00
2023-05-21T09:06:44.446Z,471.00
2023-05-21T09:07:44.465Z,469.00
2023-05-21T09:08:44.537Z,469.00
2023-05-21T09:09:44.591Z,469.00
2023-05-21T09:10:44.660Z,469.00
2023-05-21T09:11:44.707Z,469.00
2023-05-21T09:12:44.747Z,469.00
2023-05-21T09:13:44.779Z,471.00
2023-05-21T09:14:44.892Z,473.00
2023-05-21T09:15:44.891Z,473.00
2023-05-21T09:16:44.960Z,474.00
2023-05-21T09:17:44.999Z,472.00
2023-05-21T09:18:45.095Z,472.00
2023-05-21T09:19:45.077Z,470.00
2023-05-21T09:20:45.109Z,472.00
2023-05-21T09:21:45.155Z,468.00
2023-05-21T09:22:45.206Z,469.00
2023-05-21T09:23:45.243Z,467.00
2023-05-21T09:24:45.299Z,466.00
2023-05-21T09:25:45.353Z,467.00
2023-05-21T09:26:45.387Z,469.00
2023-05-21T09:27:45.418Z,470.00
2023-05-21T09:28:45.486Z,470.00
2023-05-21T09:29:45.528Z,470.00
2023-05-21T09:30:45.585Z,472.00
2023-05-21T09:31:45.750Z,470.00
2023-05-21T09:32:45.734Z,471.00
2023-05-21T09:33:45.705Z,469.00
2023-05-21T09:34:45.775Z,469.00
2023-05-21T09:35:45.822Z,469.00
2023-05-21T09:36:45.854Z,469.00
2023-05-21T09:37:45.910Z,468.00
2023-05-21T09:38:45.990Z,468.00
2023-05-21T09:39:45.971Z,470.00
2023-05-21T09:40:46.047Z,469.00
2023-05-21T09:41:46.058Z,468.00
2023-05-21T09:42:46.102Z,466.00
2023-05-21T09:43:46.133Z,462.00
2023-05-21T09:44:46.188Z,462.00
2023-05-21T09:45:46.234Z,463.00
2023-05-21T09:46:46.310Z,464.00
2023-05-21T09:47:46.390Z,467.00
2023-05-21T09:48:46.349Z,469.00
2023-05-21T09:49:46.420Z,470.00
2023-05-21T09:50:46.454Z,470.00
2023-05-21T09:51:46.486Z,468.00
2023-05-21T09:52:46.523Z,468.00
2023-05-21T09:53:46.560Z,466.00
2023-05-21T09:54:46.593Z,468.00
2023-05-21T09:55:46.698Z,467.00
2023-05-21T09:56:46.699Z,467.00
2023-05-21T09:57:48.129Z,466.00
2023-05-21T09:58:46.749Z,466.00
2023-05-21T09:59:46.704Z,465.00
2023-05-21T10:00:46.709Z,466.00
2023-05-21T10:01:46.741Z,466.00
2023-05-21T10:02:46.766Z,468.00
2023-05-21T10:03:48.170Z,469.00
2023-05-21T10:04:46.782Z,467.00
2023-05-21T10:05:46.627Z,465.00
2023-05-21T10:06:46.596Z,467.00
2023-05-21T10:07:46.584Z,467.00
2023-05-21T10:08:46.552Z,472.00
2023-05-21T10:09:46.542Z,470.00
2023-05-21T10:10:46.534Z,469.00
2023-05-21T10:11:46.506Z,469.00
2023-05-21T10:12:46.490Z,468.00
2023-05-21T10:13:46.474Z,470.00
2023-05-21T10:14:46.460Z,470.00
2023-05-21T10:15:47.071Z,472.00
2023-05-21T10:16:46.451Z,471.00
2023-05-21T10:17:46.452Z,471.00
2023-05-21T10:18:46.442Z,470.00
2023-05-21T10:19:46.377Z,470.00
2023-05-21T10:20:46.364Z,472.00
2023-05-21T10:21:46.339Z,473.00
2023-05-21T10:22:46.330Z,474.00
2023-05-21T10:23:46.300Z,473.00
2023-05-21T10:24:46.304Z,471.00
2023-05-21T10:25:46.284Z,471.00
2023-05-21T10:26:46.270Z,471.00
2023-05-21T10:27:46.270Z,473.00
2023-05-21T10:28:46.305Z,474.00
2023-05-21T10:29:46.340Z,473.00
2023-05-21T10:30:46.387Z,473.00
2023-05-21T10:31:46.460Z,472.00
2023-05-21T10:32:46.685Z,471.00
2023-05-21T10:33:46.508Z,468.00
2023-05-21T10:34:46.542Z,467.00
2023-05-21T10:35:46.599Z,464.00
2023-05-21T10:36:46.626Z,466.00
2023-05-21T10:37:46.666Z,464.00
2023-05-21T10:38:46.697Z,465.00
2023-05-21T10:39:46.752Z,467.00
2023-05-21T10:40:46.780Z,472.00
2023-05-21T10:41:46.819Z,471.00
2023-05-21T10:42:46.854Z,470.00
2023-05-21T10:43:46.924Z,471.00
2023-05-21T10:44:46.939Z,470.00
2023-05-21T10:45:46.998Z,469.00
2023-05-21T10:46:47.018Z,469.00
2023-05-21T10:47:47.142Z,469.00
2023-05-21T10:48:47.097Z,469.00
2023-05-21T10:49:47.124Z,470.00
2023-05-21T10:50:47.163Z,470.00
2023-05-21T10:51:47.247Z,467.00
2023-05-21T10:52:47.233Z,467.00
2023-05-21T10:53:47.270Z,467.00
2023-05-21T10:54:47.305Z,467.00
2023-05-21T10:55:47.359Z,467.00
2023-05-21T10:56:47.393Z,470.00
2023-05-21T10:57:47.406Z,471.00
2023-05-21T10:58:47.449Z,471.00
2023-05-21T10:59:47.551Z,471.00
2023-05-21T11:00:47.605Z,469.00
2023-05-21T11:01:47.664Z,468.00
2023-05-21T11:02:47.693Z,468.00
2023-05-21T11:03:47.666Z,471.00
2023-05-21T11:04:47.665Z,469.00
2023-05-21T11:05:47.709Z,469.00
2023-05-21T11:06:47.801Z,471.00
2023-05-21T11:07:47.780Z,472.00
2023-05-21T11:08:47.817Z,474.00
2023-05-21T11:09:47.838Z,474.00
2023-05-21T11:10:47.883Z,473.00
2023-05-21T11:11:47.918Z,473.00
2023-05-21T11:12:47.951Z,474.00
2023-05-21T11:13:47.988Z,473.00
2023-05-21T11:14:48.023Z,474.00
2023-05-21T11:15:48.063Z,476.00
2023-05-21T11:16:48.148Z,477.00
2023-05-21T11:17:48.185Z,474.00
2023-05-21T11:18:48.237Z,473.00
2023-05-21T11:19:48.167Z,474.00
2023-05-21T11:20:48.171Z,472.00
2023-05-21T11:21:48.132Z,471.00
2023-05-21T11:22:48.137Z,469.00
2023-05-21T11:23:48.089Z,472.00
2023-05-21T11:24:50.502Z,471.00
2023-05-21T11:25:48.071Z,469.00
2023-05-21T11:26:48.059Z,469.00
2023-05-21T11:27:48.035Z,468.00
2023-05-21T11:28:48.021Z,469.00
2023-05-21T11:29:47.989Z,470.00
2023-05-21T11:30:48.035Z,469.00
2023-05-21T11:31:48.010Z,468.00
2023-05-21T11:32:47.948Z,466.00
2023-05-21T11:33:47.934Z,465.00
2023-05-21T11:34:47.938Z,465.00
2023-05-21T11:35:47.888Z,465.00
2023-05-21T11:36:47.882Z,467.00
2023-05-21T11:37:47.859Z,465.00
2023-05-21T11:38:47.841Z,466.00
2023-05-21T11:39:47.819Z,465.00
2023-05-21T11:40:47.795Z,466.00
2023-05-21T11:41:47.780Z,467.00
2023-05-21T11:42:47.769Z,468.00
2023-05-21T11:43:47.749Z,467.00
2023-05-21T11:44:47.727Z,466.00
2023-05-21T11:45:47.716Z,466.00
2023-05-21T11:46:47.724Z,465.00
2023-05-21T11:47:47.666Z,464.00
2023-05-21T11:48:47.665Z,465.00
2023-05-21T11:49:47.621Z,466.00
2023-05-21T11:50:47.612Z,466.00
2023-05-21T11:51:47.608Z,464.00
2023-05-21T11:52:47.565Z,462.00
2023-05-21T11:53:47.553Z,462.00
2023-05-21T11:54:47.545Z,462.00
2023-05-21T11:55:47.498Z,462.00
2023-05-21T11:56:47.481Z,461.00
2023-05-21T11:57:47.475Z,459.00
2023-05-21T11:58:47.447Z,458.00
2023-05-21T11:59:47.430Z,458.00
2023-05-21T12:00:47.432Z,458.00
2023-05-21T12:01:47.403Z,459.00
2023-05-21T12:02:47.535Z,460.00
2023-05-21T12:03:47.449Z,459.00
2023-05-21T12:04:47.359Z,459.00
2023-05-21T12:05:47.384Z,458.00
2023-05-21T12:06:47.377Z,460.00
2023-05-21T12:07:47.426Z,460.00
2023-05-21T12:08:47.470Z,458.00
2023-05-21T12:09:47.523Z,459.00
2023-05-21T12:10:47.558Z,459.00
2023-05-21T12:11:47.591Z,462.00
2023-05-21T12:12:55.720Z,462.00
2023-05-21T12:13:48.688Z,462.00
2023-05-21T12:14:47.612Z,463.00
2023-05-21T12:15:47.628Z,463.00
2023-05-21T12:16:47.646Z,463.00
2023-05-21T12:17:47.589Z,464.00
2023-05-21T12:18:47.602Z,462.00
2023-05-21T12:19:47.538Z,463.00
2023-05-21T12:20:47.533Z,464.00
2023-05-21T12:21:47.509Z,465.00
2023-05-21T12:22:47.474Z,465.00
2023-05-21T12:23:47.466Z,464.00
2023-05-21T12:24:47.449Z,465.00
2023-05-21T12:25:47.451Z,466.00
2023-05-21T12:26:47.434Z,467.00
2023-05-21T12:27:47.409Z,468.00
2023-05-21T12:28:47.403Z,468.00